sensor_id;sensor_type;location;lat;lon;timestamp;temperature;humidity
4295;DHT22;2161;53.634;10.100;2023-04-25T00:01:35;9.30;99.90
4295;DHT22;2161;53.634;10.100;2023-04-25T00:04:03;9.30;99.90
4295;DHT22;2161;53.634;10.100;2023-04-25T00:06:29;9.20;99.90
4295;DHT22;2161;53.634;10.100;2023-04-25T00:08:57;9.20;99.90
4295;DHT22;2161;53.634;10.100;2023-04-25T00:11:23;9.20;99.90
4295;DHT22;2161;53.634;10.100;2023-04-25T00:13:49;9.10;99.90
4295;DHT22;2161;53.634;10.100;2023-04-25T00:16:16;9.10;99.90
4295;DHT22;2161;53.634;10.100;2023-04-25T00:18:42;9.20;99.90
4295;DHT22;2161;53.634;10.100;2023-04-25T00:21:11;9.20;99.90
4295;DHT22;2161;53.634;10.100;2023-04-25T00:23:37;9.20;99.90
4295;DHT22;2161;53.634;10.100;2023-04-25T00:26:04;9.30;99.90
4295;DHT22;2161;53.634;10.100;2023-04-25T00:28:30;9.10;99.90
4295;DHT22;2161;53.634;10.100;2023-04-25T00:30:55;9.20;99.90
4295;DHT22;2161;53.634;10.100;2023-04-25T00:33:21;9.10;99.90
4295;DHT22;2161;53.634;10.100;2023-04-25T00:35:46;9.10;99.90
4295;DHT22;2161;53.634;10.100;2023-04-25T00:38:12;9.20;99.90
4295;DHT22;2161;53.634;10.100;2023-04-25T00:40:37;9.30;99.90
4295;DHT22;2161;53.634;10.100;2023-04-25T00:43:03;9.20;99.90
4295;DHT22;2161;53.634;10.100;2023-04-25T00:45:29;9.20;99.90
4295;DHT22;2161;53.634;10.100;2023-04-25T00:47:55;9.20;99.90
4295;DHT22;2161;53.634;10.100;2023-04-25T00:50:22;9.10;99.90
4295;DHT22;2161;53.634;10.100;2023-04-25T00:52:47;9.20;99.90
4295;DHT22;2161;53.634;10.100;2023-04-25T00:55:13;9.20;99.90
4295;DHT22;2161;53.634;10.100;2023-04-25T00:57:39;9.20;99.90
4295;DHT22;2161;53.634;10.100;2023-04-25T01:00:06;9.20;99.90
4295;DHT22;2161;53.634;10.100;2023-04-25T01:02:33;9.10;99.90
4295;DHT22;2161;53.634;10.100;2023-04-25T01:05:01;9.00;99.90
4295;DHT22;2161;53.634;10.100;2023-04-25T01:07:26;9.00;99.90
4295;DHT22;2161;53.634;10.100;2023-04-25T01:09:52;9.00;99.90
4295;DHT22;2161;53.634;10.100;2023-04-25T01:12:18;9.00;99.90
4295;DHT22;2161;53.634;10.100;2023-04-25T01:14:44;9.00;99.90
4295;DHT22;2161;53.634;10.100;2023-04-25T01:17:10;8.90;99.90
4295;DHT22;2161;53.634;10.100;2023-04-25T01:19:36;8.90;99.90
4295;DHT22;2161;53.634;10.100;2023-04-25T01:22:02;8.80;99.90
4295;DHT22;2161;53.634;10.100;2023-04-25T01:24:29;8.80;99.90
4295;DHT22;2161;53.634;10.100;2023-04-25T01:26:54;8.70;99.90
4295;DHT22;2161;53.634;10.100;2023-04-25T01:29:22;8.70;99.90
4295;DHT22;2161;53.634;10.100;2023-04-25T01:31:48;8.70;99.90
4295;DHT22;2161;53.634;10.100;2023-04-25T01:34:14;8.70;99.90
4295;DHT22;2161;53.634;10.100;2023-04-25T01:36:39;8.70;99.90
4295;DHT22;2161;53.634;10.100;2023-04-25T01:39:06;8.70;99.90
4295;DHT22;2161;53.634;10.100;2023-04-25T01:41:31;8.70;99.90
4295;DHT22;2161;53.634;10.100;2023-04-25T01:43:57;8.60;99.90
4295;DHT22;2161;53.634;10.100;2023-04-25T01:46:23;8.60;99.90
4295;DHT22;2161;53.634;10.100;2023-04-25T01:48:49;8.60;99.90
4295;DHT22;2161;53.634;10.100;2023-04-25T01:51:15;8.70;99.90
4295;DHT22;2161;53.634;10.100;2023-04-25T01:53:41;8.70;99.90
4295;DHT22;2161;53.634;10.100;2023-04-25T01:56:07;8.70;99.90
4295;DHT22;2161;53.634;10.100;2023-04-25T01:58:33;8.70;99.90
4295;DHT22;2161;53.634;10.100;2023-04-25T02:00:58;8.60;99.90
4295;DHT22;2161;53.634;10.100;2023-04-25T02:03:24;8.60;99.90
4295;DHT22;2161;53.634;10.100;2023-04-25T02:05:49;8.60;99.90
4295;DHT22;2161;53.634;10.100;2023-04-25T02:08:16;8.60;99.90
4295;DHT22;2161;53.634;10.100;2023-04-25T02:10:42;8.50;99.90
4295;DHT22;2161;53.634;10.100;2023-04-25T02:13:08;8.40;99.90
4295;DHT22;2161;53.634;10.100;2023-04-25T02:15:33;8.40;99.90
4295;DHT22;2161;53.634;10.100;2023-04-25T02:17:59;8.40;99.90
4295;DHT22;2161;53.634;10.100;2023-04-25T02:20:26;8.40;99.90
4295;DHT22;2161;53.634;10.100;2023-04-25T02:22:52;8.50;99.90
4295;DHT22;2161;53.634;10.100;2023-04-25T02:25:18;8.50;99.90
4295;DHT22;2161;53.634;10.100;2023-04-25T02:27:46;8.50;99.90
4295;DHT22;2161;53.634;10.100;2023-04-25T02:30:12;8.40;99.90
4295;DHT22;2161;53.634;10.100;2023-04-25T02:32:38;8.40;99.90
4295;DHT22;2161;53.634;10.100;2023-04-25T02:35:04;8.40;99.90
4295;DHT22;2161;53.634;10.100;2023-04-25T02:37:31;8.30;99.90
4295;DHT22;2161;53.634;10.100;2023-04-25T02:39:56;8.40;99.90
4295;DHT22;2161;53.634;10.100;2023-04-25T02:42:22;8.40;99.90
4295;DHT22;2161;53.634;10.100;2023-04-25T02:44:48;8.40;99.90
4295;DHT22;2161;53.634;10.100;2023-04-25T02:47:13;8.30;99.90
4295;DHT22;2161;53.634;10.100;2023-04-25T02:49:39;8.40;99.90
4295;DHT22;2161;53.634;10.100;2023-04-25T02:52:04;8.40;99.90
4295;DHT22;2161;53.634;10.100;2023-04-25T02:54:30;8.30;99.90
4295;DHT22;2161;53.634;10.100;2023-04-25T02:56:56;8.30;99.90
4295;DHT22;2161;53.634;10.100;2023-04-25T02:59:21;8.20;99.90
4295;DHT22;2161;53.634;10.100;2023-04-25T03:01:47;8.20;99.90
4295;DHT22;2161;53.634;10.100;2023-04-25T03:04:12;8.10;99.90
4295;DHT22;2161;53.634;10.100;2023-04-25T03:06:38;8.10;99.90
4295;DHT22;2161;53.634;10.100;2023-04-25T03:09:04;8.00;99.90
4295;DHT22;2161;53.634;10.100;2023-04-25T03:11:29;8.00;99.90
4295;DHT22;2161;53.634;10.100;2023-04-25T03:13:55;8.10;99.90
4295;DHT22;2161;53.634;10.100;2023-04-25T03:16:21;8.10;99.90
4295;DHT22;2161;53.634;10.100;2023-04-25T03:18:47;8.10;99.90
4295;DHT22;2161;53.634;10.100;2023-04-25T03:21:12;8.10;99.90
4295;DHT22;2161;53.634;10.100;2023-04-25T03:23:38;7.90;99.90
4295;DHT22;2161;53.634;10.100;2023-04-25T03:26:03;8.00;99.90
4295;DHT22;2161;53.634;10.100;2023-04-25T03:28:29;8.00;99.90
4295;DHT22;2161;53.634;10.100;2023-04-25T03:30:55;8.00;99.90
4295;DHT22;2161;53.634;10.100;2023-04-25T03:33:20;7.90;99.90
4295;DHT22;2161;53.634;10.100;2023-04-25T03:35:46;7.80;99.90
4295;DHT22;2161;53.634;10.100;2023-04-25T03:38:11;7.80;99.90
4295;DHT22;2161;53.634;10.100;2023-04-25T03:40:37;7.80;99.90
4295;DHT22;2161;53.634;10.100;2023-04-25T03:43:02;7.70;99.90
4295;DHT22;2161;53.634;10.100;2023-04-25T03:45:28;7.70;99.90
4295;DHT22;2161;53.634;10.100;2023-04-25T03:47:53;7.70;99.90
4295;DHT22;2161;53.634;10.100;2023-04-25T03:50:19;7.70;99.90
4295;DHT22;2161;53.634;10.100;2023-04-25T03:52:45;7.70;99.90
4295;DHT22;2161;53.634;10.100;2023-04-25T03:55:10;7.70;99.90
4295;DHT22;2161;53.634;10.100;2023-04-25T03:57:36;7.70;99.90
4295;DHT22;2161;53.634;10.100;2023-04-25T04:00:01;7.70;99.90
4295;DHT22;2161;53.634;10.100;2023-04-25T04:02:28;7.80;99.90
4295;DHT22;2161;53.634;10.100;2023-04-25T04:04:54;7.80;99.90
4295;DHT22;2161;53.634;10.100;2023-04-25T04:07:21;7.80;99.90
4295;DHT22;2161;53.634;10.100;2023-04-25T04:09:46;7.90;99.90
4295;DHT22;2161;53.634;10.100;2023-04-25T04:12:12;7.90;99.90
4295;DHT22;2161;53.634;10.100;2023-04-25T04:14:37;7.90;99.90
4295;DHT22;2161;53.634;10.100;2023-04-25T04:17:03;7.90;99.90
4295;DHT22;2161;53.634;10.100;2023-04-25T04:19:28;7.80;99.90
4295;DHT22;2161;53.634;10.100;2023-04-25T04:21:54;7.80;99.90
4295;DHT22;2161;53.634;10.100;2023-04-25T04:24:19;7.60;99.90
4295;DHT22;2161;53.634;10.100;2023-04-25T04:26:45;7.60;99.90
4295;DHT22;2161;53.634;10.100;2023-04-25T04:29:11;7.70;99.90
4295;DHT22;2161;53.634;10.100;2023-04-25T04:31:37;7.70;99.90
4295;DHT22;2161;53.634;10.100;2023-04-25T04:34:03;7.70;99.90
4295;DHT22;2161;53.634;10.100;2023-04-25T04:36:29;7.70;99.90
4295;DHT22;2161;53.634;10.100;2023-04-25T04:38:55;7.80;99.90
4295;DHT22;2161;53.634;10.100;2023-04-25T04:41:21;7.70;99.90
4295;DHT22;2161;53.634;10.100;2023-04-25T04:43:47;7.80;99.90
4295;DHT22;2161;53.634;10.100;2023-04-25T04:46:13;7.80;99.90
4295;DHT22;2161;53.634;10.100;2023-04-25T04:48:38;7.70;99.90
4295;DHT22;2161;53.634;10.100;2023-04-25T04:51:05;7.70;99.90
4295;DHT22;2161;53.634;10.100;2023-04-25T04:53:31;7.80;99.90
4295;DHT22;2161;53.634;10.100;2023-04-25T04:55:57;7.80;99.90
4295;DHT22;2161;53.634;10.100;2023-04-25T04:58:22;7.50;99.90
4295;DHT22;2161;53.634;10.100;2023-04-25T05:00:48;7.90;99.90
4295;DHT22;2161;53.634;10.100;2023-04-25T05:03:14;7.90;99.90
4295;DHT22;2161;53.634;10.100;2023-04-25T05:05:40;7.90;99.90
4295;DHT22;2161;53.634;10.100;2023-04-25T05:08:06;7.60;99.90
4295;DHT22;2161;53.634;10.100;2023-04-25T05:10:32;7.80;99.90
4295;DHT22;2161;53.634;10.100;2023-04-25T05:12:57;7.70;99.90
4295;DHT22;2161;53.634;10.100;2023-04-25T05:15:23;7.70;99.90
4295;DHT22;2161;53.634;10.100;2023-04-25T05:17:48;7.60;99.90
4295;DHT22;2161;53.634;10.100;2023-04-25T05:20:14;7.70;99.90
4295;DHT22;2161;53.634;10.100;2023-04-25T05:22:40;7.50;99.90
4295;DHT22;2161;53.634;10.100;2023-04-25T05:25:07;7.50;99.90
4295;DHT22;2161;53.634;10.100;2023-04-25T05:27:33;7.40;99.90
4295;DHT22;2161;53.634;10.100;2023-04-25T05:29:59;7.40;99.90
4295;DHT22;2161;53.634;10.100;2023-04-25T05:32:25;7.40;99.90
4295;DHT22;2161;53.634;10.100;2023-04-25T05:34:50;7.60;99.90
4295;DHT22;2161;53.634;10.100;2023-04-25T05:37:17;7.50;99.90
4295;DHT22;2161;53.634;10.100;2023-04-25T05:39:42;7.50;99.90
4295;DHT22;2161;53.634;10.100;2023-04-25T05:42:08;7.40;99.90
4295;DHT22;2161;53.634;10.100;2023-04-25T05:44:33;7.50;99.90
4295;DHT22;2161;53.634;10.100;2023-04-25T05:46:59;7.40;99.90
4295;DHT22;2161;53.634;10.100;2023-04-25T05:49:25;7.40;99.90
4295;DHT22;2161;53.634;10.100;2023-04-25T05:51:50;7.40;99.90
4295;DHT22;2161;53.634;10.100;2023-04-25T05:54:16;7.40;99.90
4295;DHT22;2161;53.634;10.100;2023-04-25T05:56:42;7.40;99.90
4295;DHT22;2161;53.634;10.100;2023-04-25T05:59:07;7.40;99.90
4295;DHT22;2161;53.634;10.100;2023-04-25T06:01:33;7.40;99.90
4295;DHT22;2161;53.634;10.100;2023-04-25T06:03:58;7.50;99.90
4295;DHT22;2161;53.634;10.100;2023-04-25T06:06:24;7.60;99.90
4295;DHT22;2161;53.634;10.100;2023-04-25T06:08:49;7.60;99.90
4295;DHT22;2161;53.634;10.100;2023-04-25T06:11:15;7.70;99.90
4295;DHT22;2161;53.634;10.100;2023-04-25T06:13:41;7.80;99.90
4295;DHT22;2161;53.634;10.100;2023-04-25T06:16:06;7.80;99.90
4295;DHT22;2161;53.634;10.100;2023-04-25T06:18:32;7.80;99.90
4295;DHT22;2161;53.634;10.100;2023-04-25T06:20:58;7.90;99.90
4295;DHT22;2161;53.634;10.100;2023-04-25T06:23:23;8.00;99.90
4295;DHT22;2161;53.634;10.100;2023-04-25T06:25:49;8.00;99.90
4295;DHT22;2161;53.634;10.100;2023-04-25T06:28:14;8.00;99.90
4295;DHT22;2161;53.634;10.100;2023-04-25T06:30:40;8.00;99.90
4295;DHT22;2161;53.634;10.100;2023-04-25T06:33:05;8.10;99.90
4295;DHT22;2161;53.634;10.100;2023-04-25T06:35:31;8.20;99.90
4295;DHT22;2161;53.634;10.100;2023-04-25T06:37:57;8.10;99.90
4295;DHT22;2161;53.634;10.100;2023-04-25T06:40:22;8.10;99.90
4295;DHT22;2161;53.634;10.100;2023-04-25T06:42:48;8.10;99.90
4295;DHT22;2161;53.634;10.100;2023-04-25T06:45:13;8.00;99.90
4295;DHT22;2161;53.634;10.100;2023-04-25T06:47:39;8.00;99.90
4295;DHT22;2161;53.634;10.100;2023-04-25T06:50:05;8.10;99.90
4295;DHT22;2161;53.634;10.100;2023-04-25T06:52:31;8.10;99.90
4295;DHT22;2161;53.634;10.100;2023-04-25T06:54:56;7.90;99.90
4295;DHT22;2161;53.634;10.100;2023-04-25T06:57:22;7.90;99.90
4295;DHT22;2161;53.634;10.100;2023-04-25T06:59:47;7.90;99.90
4295;DHT22;2161;53.634;10.100;2023-04-25T07:02:13;7.90;99.90
4295;DHT22;2161;53.634;10.100;2023-04-25T07:04:38;8.00;99.90
4295;DHT22;2161;53.634;10.100;2023-04-25T07:07:04;7.90;99.90
4295;DHT22;2161;53.634;10.100;2023-04-25T07:09:29;8.00;99.90
4295;DHT22;2161;53.634;10.100;2023-04-25T07:11:55;8.00;99.90
4295;DHT22;2161;53.634;10.100;2023-04-25T07:14:22;8.10;99.90
4295;DHT22;2161;53.634;10.100;2023-04-25T07:16:47;7.90;99.90
4295;DHT22;2161;53.634;10.100;2023-04-25T07:19:13;8.00;99.90
4295;DHT22;2161;53.634;10.100;2023-04-25T07:21:39;8.00;99.90
4295;DHT22;2161;53.634;10.100;2023-04-25T07:24:04;7.90;99.90
4295;DHT22;2161;53.634;10.100;2023-04-25T07:26:30;7.70;99.90
4295;DHT22;2161;53.634;10.100;2023-04-25T07:28:55;7.60;99.90
4295;DHT22;2161;53.634;10.100;2023-04-25T07:31:21;7.70;99.90
4295;DHT22;2161;53.634;10.100;2023-04-25T07:33:48;7.60;99.90
4295;DHT22;2161;53.634;10.100;2023-04-25T07:36:13;7.70;99.90
4295;DHT22;2161;53.634;10.100;2023-04-25T07:38:40;7.60;99.90
4295;DHT22;2161;53.634;10.100;2023-04-25T07:41:06;7.70;99.90
4295;DHT22;2161;53.634;10.100;2023-04-25T07:43:32;7.70;99.90
4295;DHT22;2161;53.634;10.100;2023-04-25T07:45:57;7.80;99.90
4295;DHT22;2161;53.634;10.100;2023-04-25T07:48:23;7.70;99.90
4295;DHT22;2161;53.634;10.100;2023-04-25T07:50:48;7.90;99.90
4295;DHT22;2161;53.634;10.100;2023-04-25T07:53:14;8.10;99.90
4295;DHT22;2161;53.634;10.100;2023-04-25T07:55:40;8.00;99.90
4295;DHT22;2161;53.634;10.100;2023-04-25T07:58:09;8.20;99.90
4295;DHT22;2161;53.634;10.100;2023-04-25T08:00:35;8.40;99.90
4295;DHT22;2161;53.634;10.100;2023-04-25T08:03:01;8.50;99.90
4295;DHT22;2161;53.634;10.100;2023-04-25T08:05:28;8.70;99.90
4295;DHT22;2161;53.634;10.100;2023-04-25T08:07:53;8.70;99.90
4295;DHT22;2161;53.634;10.100;2023-04-25T08:10:19;8.80;99.90
4295;DHT22;2161;53.634;10.100;2023-04-25T08:12:45;8.80;99.90
4295;DHT22;2161;53.634;10.100;2023-04-25T08:15:10;8.80;99.90
4295;DHT22;2161;53.634;10.100;2023-04-25T08:17:36;8.60;99.90
4295;DHT22;2161;53.634;10.100;2023-04-25T08:20:01;8.60;99.90
4295;DHT22;2161;53.634;10.100;2023-04-25T08:22:30;8.40;99.90
4295;DHT22;2161;53.634;10.100;2023-04-25T08:24:56;7.70;99.90
4295;DHT22;2161;53.634;10.100;2023-04-25T08:27:21;6.70;99.90
4295;DHT22;2161;53.634;10.100;2023-04-25T08:29:47;6.60;99.90
4295;DHT22;2161;53.634;10.100;2023-04-25T08:32:13;6.70;99.90
4295;DHT22;2161;53.634;10.100;2023-04-25T08:34:39;7.00;99.90
4295;DHT22;2161;53.634;10.100;2023-04-25T08:37:07;7.20;99.90
4295;DHT22;2161;53.634;10.100;2023-04-25T08:39:33;7.30;99.90
4295;DHT22;2161;53.634;10.100;2023-04-25T08:41:59;7.50;99.90
4295;DHT22;2161;53.634;10.100;2023-04-25T08:44:27;7.80;99.90
4295;DHT22;2161;53.634;10.100;2023-04-25T08:46:53;7.90;99.90
4295;DHT22;2161;53.634;10.100;2023-04-25T08:49:20;7.90;99.90
4295;DHT22;2161;53.634;10.100;2023-04-25T08:51:47;8.20;99.90
4295;DHT22;2161;53.634;10.100;2023-04-25T08:54:13;8.40;99.90
4295;DHT22;2161;53.634;10.100;2023-04-25T08:56:47;8.30;99.90
4295;DHT22;2161;53.634;10.100;2023-04-25T08:59:13;8.30;99.90
4295;DHT22;2161;53.634;10.100;2023-04-25T09:01:39;8.40;99.90
4295;DHT22;2161;53.634;10.100;2023-04-25T09:04:05;8.50;99.90
4295;DHT22;2161;53.634;10.100;2023-04-25T09:06:31;8.90;99.90
4295;DHT22;2161;53.634;10.100;2023-04-25T09:09:04;9.10;99.90
4295;DHT22;2161;53.634;10.100;2023-04-25T09:11:30;9.10;99.90
4295;DHT22;2161;53.634;10.100;2023-04-25T09:14:13;9.00;99.90
4295;DHT22;2161;53.634;10.100;2023-04-25T09:16:58;8.80;99.90
4295;DHT22;2161;53.634;10.100;2023-04-25T09:19:30;8.60;99.90
4295;DHT22;2161;53.634;10.100;2023-04-25T09:21:57;8.40;99.90
4295;DHT22;2161;53.634;10.100;2023-04-25T09:24:42;8.20;99.90
4295;DHT22;2161;53.634;10.100;2023-04-25T09:27:13;8.10;99.90
4295;DHT22;2161;53.634;10.100;2023-04-25T09:29:43;8.40;99.90
4295;DHT22;2161;53.634;10.100;2023-04-25T09:32:23;8.50;99.90
4295;DHT22;2161;53.634;10.100;2023-04-25T09:34:49;8.70;99.90
4295;DHT22;2161;53.634;10.100;2023-04-25T09:37:27;9.00;99.90
4295;DHT22;2161;53.634;10.100;2023-04-25T09:39:57;9.40;99.90
4295;DHT22;2161;53.634;10.100;2023-04-25T09:42:25;9.70;99.90
4295;DHT22;2161;53.634;10.100;2023-04-25T09:44:54;10.20;99.90
4295;DHT22;2161;53.634;10.100;2023-04-25T09:47:20;9.90;99.90
4295;DHT22;2161;53.634;10.100;2023-04-25T09:49:49;9.30;99.90
4295;DHT22;2161;53.634;10.100;2023-04-25T09:52:20;8.80;99.90
4295;DHT22;2161;53.634;10.100;2023-04-25T09:54:47;8.20;99.90
4295;DHT22;2161;53.634;10.100;2023-04-25T09:57:24;8.00;99.90
4295;DHT22;2161;53.634;10.100;2023-04-25T09:59:54;8.00;99.90
4295;DHT22;2161;53.634;10.100;2023-04-25T10:02:26;8.30;99.90
4295;DHT22;2161;53.634;10.100;2023-04-25T10:04:53;8.60;99.90
4295;DHT22;2161;53.634;10.100;2023-04-25T10:07:25;8.90;99.90
4295;DHT22;2161;53.634;10.100;2023-04-25T10:09:58;9.10;99.90
4295;DHT22;2161;53.634;10.100;2023-04-25T10:12:26;9.40;99.90
4295;DHT22;2161;53.634;10.100;2023-04-25T10:14:52;9.70;99.90
4295;DHT22;2161;53.634;10.100;2023-04-25T10:17:20;10.10;99.90
4295;DHT22;2161;53.634;10.100;2023-04-25T10:19:47;10.10;99.90
4295;DHT22;2161;53.634;10.100;2023-04-25T10:22:26;10.00;99.90
4295;DHT22;2161;53.634;10.100;2023-04-25T10:24:55;10.10;99.90
4295;DHT22;2161;53.634;10.100;2023-04-25T10:27:22;9.80;99.90
4295;DHT22;2161;53.634;10.100;2023-04-25T10:30:10;9.70;99.90
4295;DHT22;2161;53.634;10.100;2023-04-25T10:32:37;9.70;99.90
4295;DHT22;2161;53.634;10.100;2023-04-25T10:38:03;10.10;99.90
4295;DHT22;2161;53.634;10.100;2023-04-25T10:40:31;10.10;99.90
4295;DHT22;2161;53.634;10.100;2023-04-25T10:46:02;10.40;99.90
4295;DHT22;2161;53.634;10.100;2023-04-25T10:48:29;10.60;99.90
4295;DHT22;2161;53.634;10.100;2023-04-25T10:51:28;10.80;99.90
4295;DHT22;2161;53.634;10.100;2023-04-25T10:54:02;10.90;99.90
4295;DHT22;2161;53.634;10.100;2023-04-25T10:56:41;10.70;99.90
4295;DHT22;2161;53.634;10.100;2023-04-25T11:01:51;10.10;99.90
4295;DHT22;2161;53.634;10.100;2023-04-25T11:04:25;9.90;99.90
4295;DHT22;2161;53.634;10.100;2023-04-25T11:09:42;10.10;99.90
4295;DHT22;2161;53.634;10.100;2023-04-25T11:12:08;10.50;99.90
4295;DHT22;2161;53.634;10.100;2023-04-25T11:14:35;10.40;99.90
4295;DHT22;2161;53.634;10.100;2023-04-25T11:17:01;10.10;99.90
4295;DHT22;2161;53.634;10.100;2023-04-25T11:19:28;9.70;99.90
4295;DHT22;2161;53.634;10.100;2023-04-25T11:21:58;9.30;99.90
4295;DHT22;2161;53.634;10.100;2023-04-25T11:24:29;9.10;99.90
4295;DHT22;2161;53.634;10.100;2023-04-25T11:26:57;8.90;99.90
4295;DHT22;2161;53.634;10.100;2023-04-25T11:29:26;8.90;99.90
4295;DHT22;2161;53.634;10.100;2023-04-25T11:31:52;8.90;99.90
4295;DHT22;2161;53.634;10.100;2023-04-25T11:34:18;8.90;99.90
4295;DHT22;2161;53.634;10.100;2023-04-25T11:36:45;9.00;99.90
4295;DHT22;2161;53.634;10.100;2023-04-25T11:39:11;9.30;99.90
4295;DHT22;2161;53.634;10.100;2023-04-25T11:41:40;9.90;99.90
4295;DHT22;2161;53.634;10.100;2023-04-25T11:44:06;10.40;99.90
4295;DHT22;2161;53.634;10.100;2023-04-25T11:46:33;10.80;99.90
4295;DHT22;2161;53.634;10.100;2023-04-25T11:49:00;11.30;99.90
4295;DHT22;2161;53.634;10.100;2023-04-25T11:51:25;11.60;99.90
4295;DHT22;2161;53.634;10.100;2023-04-25T11:53:51;11.50;99.90
4295;DHT22;2161;53.634;10.100;2023-04-25T11:56:17;11.70;99.90
4295;DHT22;2161;53.634;10.100;2023-04-25T11:58:58;11.70;99.90
4295;DHT22;2161;53.634;10.100;2023-04-25T12:01:29;12.00;99.90
4295;DHT22;2161;53.634;10.100;2023-04-25T12:03:55;12.30;99.90
4295;DHT22;2161;53.634;10.100;2023-04-25T12:06:21;12.50;99.90
4295;DHT22;2161;53.634;10.100;2023-04-25T12:09:03;12.40;99.90
4295;DHT22;2161;53.634;10.100;2023-04-25T12:11:30;12.60;99.90
4295;DHT22;2161;53.634;10.100;2023-04-25T12:14:04;12.80;99.90
4295;DHT22;2161;53.634;10.100;2023-04-25T12:16:43;12.50;99.90
4295;DHT22;2161;53.634;10.100;2023-04-25T12:19:08;12.20;99.90
4295;DHT22;2161;53.634;10.100;2023-04-25T12:21:34;12.20;99.90
4295;DHT22;2161;53.634;10.100;2023-04-25T12:24:14;12.10;99.90
4295;DHT22;2161;53.634;10.100;2023-04-25T12:29:19;12.00;99.90
4295;DHT22;2161;53.634;10.100;2023-04-25T12:31:45;12.00;99.90
4295;DHT22;2161;53.634;10.100;2023-04-25T12:34:11;12.10;99.90
4295;DHT22;2161;53.634;10.100;2023-04-25T12:36:37;12.20;99.90
4295;DHT22;2161;53.634;10.100;2023-04-25T12:39:02;12.30;99.90
4295;DHT22;2161;53.634;10.100;2023-04-25T12:41:30;12.60;99.90
4295;DHT22;2161;53.634;10.100;2023-04-25T12:43:55;12.60;99.90
4295;DHT22;2161;53.634;10.100;2023-04-25T12:46:21;12.30;99.90
4295;DHT22;2161;53.634;10.100;2023-04-25T12:48:48;12.00;99.90
4295;DHT22;2161;53.634;10.100;2023-04-25T12:51:14;12.10;99.90
4295;DHT22;2161;53.634;10.100;2023-04-25T12:53:40;12.10;99.90
4295;DHT22;2161;53.634;10.100;2023-04-25T12:56:07;11.70;99.90
4295;DHT22;2161;53.634;10.100;2023-04-25T12:58:32;11.40;99.90
4295;DHT22;2161;53.634;10.100;2023-04-25T13:00:59;11.10;99.90
4295;DHT22;2161;53.634;10.100;2023-04-25T13:03:24;10.70;99.90
4295;DHT22;2161;53.634;10.100;2023-04-25T13:05:51;10.40;99.90
4295;DHT22;2161;53.634;10.100;2023-04-25T13:08:18;10.30;99.90
4295;DHT22;2161;53.634;10.100;2023-04-25T13:10:43;10.80;99.90
4295;DHT22;2161;53.634;10.100;2023-04-25T13:13:09;11.10;99.90
4295;DHT22;2161;53.634;10.100;2023-04-25T13:15:34;11.30;99.90
4295;DHT22;2161;53.634;10.100;2023-04-25T13:18:00;11.50;99.90
4295;DHT22;2161;53.634;10.100;2023-04-25T13:20:26;11.50;99.90
4295;DHT22;2161;53.634;10.100;2023-04-25T13:22:52;11.50;99.90
4295;DHT22;2161;53.634;10.100;2023-04-25T13:25:17;11.40;99.90
4295;DHT22;2161;53.634;10.100;2023-04-25T13:27:44;10.80;99.90
4295;DHT22;2161;53.634;10.100;2023-04-25T13:30:10;10.40;99.90
4295;DHT22;2161;53.634;10.100;2023-04-25T13:32:37;10.10;99.90
4295;DHT22;2161;53.634;10.100;2023-04-25T13:35:08;10.00;99.90
4295;DHT22;2161;53.634;10.100;2023-04-25T13:37:35;10.50;99.90
4295;DHT22;2161;53.634;10.100;2023-04-25T13:40:04;10.60;99.90
4295;DHT22;2161;53.634;10.100;2023-04-25T13:42:31;10.50;99.90
4295;DHT22;2161;53.634;10.100;2023-04-25T13:44:56;10.80;99.90
4295;DHT22;2161;53.634;10.100;2023-04-25T13:47:22;11.00;99.90
4295;DHT22;2161;53.634;10.100;2023-04-25T13:49:49;10.80;99.90
4295;DHT22;2161;53.634;10.100;2023-04-25T13:52:14;10.60;99.90
4295;DHT22;2161;53.634;10.100;2023-04-25T13:54:40;10.10;99.90
4295;DHT22;2161;53.634;10.100;2023-04-25T13:57:05;9.70;99.90
4295;DHT22;2161;53.634;10.100;2023-04-25T13:59:32;9.30;99.90
4295;DHT22;2161;53.634;10.100;2023-04-25T14:01:58;9.20;99.90
4295;DHT22;2161;53.634;10.100;2023-04-25T14:04:23;9.30;99.90
4295;DHT22;2161;53.634;10.100;2023-04-25T14:06:49;9.20;99.90
4295;DHT22;2161;53.634;10.100;2023-04-25T14:09:15;9.50;99.90
4295;DHT22;2161;53.634;10.100;2023-04-25T14:11:41;9.50;99.90
4295;DHT22;2161;53.634;10.100;2023-04-25T14:14:06;9.70;99.90
4295;DHT22;2161;53.634;10.100;2023-04-25T14:16:32;10.00;99.90
4295;DHT22;2161;53.634;10.100;2023-04-25T14:18:58;10.10;99.90
4295;DHT22;2161;53.634;10.100;2023-04-25T14:21:24;10.00;99.90
4295;DHT22;2161;53.634;10.100;2023-04-25T14:23:50;10.30;99.90
4295;DHT22;2161;53.634;10.100;2023-04-25T14:26:16;10.60;99.90
4295;DHT22;2161;53.634;10.100;2023-04-25T14:28:41;10.80;99.90
4295;DHT22;2161;53.634;10.100;2023-04-25T14:31:07;10.80;99.90
4295;DHT22;2161;53.634;10.100;2023-04-25T14:33:32;10.70;99.90
4295;DHT22;2161;53.634;10.100;2023-04-25T14:35:58;10.40;99.90
4295;DHT22;2161;53.634;10.100;2023-04-25T14:38:24;10.60;99.90
4295;DHT22;2161;53.634;10.100;2023-04-25T14:40:51;10.70;99.90
4295;DHT22;2161;53.634;10.100;2023-04-25T14:43:16;11.00;99.90
4295;DHT22;2161;53.634;10.100;2023-04-25T14:45:42;11.10;99.90
4295;DHT22;2161;53.634;10.100;2023-04-25T14:48:08;11.10;99.90
4295;DHT22;2161;53.634;10.100;2023-04-25T14:50:33;11.00;99.90
4295;DHT22;2161;53.634;10.100;2023-04-25T14:52:59;11.00;99.90
4295;DHT22;2161;53.634;10.100;2023-04-25T14:55:26;10.90;99.90
4295;DHT22;2161;53.634;10.100;2023-04-25T14:57:55;10.80;99.90
4295;DHT22;2161;53.634;10.100;2023-04-25T15:00:22;10.80;99.90
4295;DHT22;2161;53.634;10.100;2023-04-25T15:02:48;10.80;99.90
4295;DHT22;2161;53.634;10.100;2023-04-25T15:05:14;10.60;99.90
4295;DHT22;2161;53.634;10.100;2023-04-25T15:07:40;10.60;99.90
4295;DHT22;2161;53.634;10.100;2023-04-25T15:10:07;10.50;99.90
4295;DHT22;2161;53.634;10.100;2023-04-25T15:12:44;10.20;99.90
4295;DHT22;2161;53.634;10.100;2023-04-25T15:15:11;9.80;99.90
4295;DHT22;2161;53.634;10.100;2023-04-25T15:17:46;9.90;99.90
4295;DHT22;2161;53.634;10.100;2023-04-25T15:20:13;9.80;99.90
4295;DHT22;2161;53.634;10.100;2023-04-25T15:22:39;9.50;99.90
4295;DHT22;2161;53.634;10.100;2023-04-25T15:25:06;9.50;99.90
4295;DHT22;2161;53.634;10.100;2023-04-25T15:27:33;9.40;99.90
4295;DHT22;2161;53.634;10.100;2023-04-25T15:29:59;9.50;99.90
4295;DHT22;2161;53.634;10.100;2023-04-25T15:32:25;9.60;99.90
4295;DHT22;2161;53.634;10.100;2023-04-25T15:34:51;9.90;99.90
4295;DHT22;2161;53.634;10.100;2023-04-25T15:37:16;9.90;99.90
4295;DHT22;2161;53.634;10.100;2023-04-25T15:39:44;10.00;99.90
4295;DHT22;2161;53.634;10.100;2023-04-25T15:42:09;10.00;99.90
4295;DHT22;2161;53.634;10.100;2023-04-25T15:44:35;10.00;99.90
4295;DHT22;2161;53.634;10.100;2023-04-25T15:47:01;10.10;99.90
4295;DHT22;2161;53.634;10.100;2023-04-25T15:49:26;10.10;99.90
4295;DHT22;2161;53.634;10.100;2023-04-25T15:51:53;10.00;99.90
4295;DHT22;2161;53.634;10.100;2023-04-25T15:54:19;9.90;99.90
4295;DHT22;2161;53.634;10.100;2023-04-25T15:56:46;9.80;99.90
4295;DHT22;2161;53.634;10.100;2023-04-25T15:59:12;9.90;99.90
4295;DHT22;2161;53.634;10.100;2023-04-25T16:01:38;9.90;99.90
4295;DHT22;2161;53.634;10.100;2023-04-25T16:04:04;9.80;99.90
4295;DHT22;2161;53.634;10.100;2023-04-25T16:06:30;9.70;99.90
4295;DHT22;2161;53.634;10.100;2023-04-25T16:08:56;9.60;99.90